Lawton, West Virginia
Current Conditions -  °F | °C
As of 6:51 AM on Monday 20 Oct 2014 (Local Time) from KBKW Reporting Station
Clear Clear  
Wind Chill: 35°   Ceiling: Unl
Heat Index: 35°   Visibility: 10mi
Dew Point: 32°   Wind: 0mph
Humidity: 89%   Direction: NA
Pressure: 30.07"   Gusts: NA
Location:  37.8709°N, 80.9957°W
Report Text: KBKW 201051Z AUTO 00000KT 10SM CLR 02/00 A3007 RMK AO2 SLP196 T00170000 TSNO
Loading
Personal Weather Stations






























Interactive Weather Map
Tropical Storm Tracking
New forecast layout! Learn more

10-Day Weather Forecast

Advertisements
Track Severe Weather on mobile